sensor_id;sensor_type;location;lat;lon;timestamp;temperature;humidity
1379;DHT22;683;48.738;9.226;2022-12-04T00:00:05;1.60;99.90
1379;DHT22;683;48.738;9.226;2022-12-04T00:02:35;1.70;99.90
1379;DHT22;683;48.738;9.226;2022-12-04T00:05:03;1.70;99.90
1379;DHT22;683;48.738;9.226;2022-12-04T00:07:30;1.70;99.90
1379;DHT22;683;48.738;9.226;2022-12-04T00:09:58;1.60;99.90
1379;DHT22;683;48.738;9.226;2022-12-04T00:12:25;1.60;99.90
1379;DHT22;683;48.738;9.226;2022-12-04T00:14:52;1.60;99.90
1379;DHT22;683;48.738;9.226;2022-12-04T00:17:19;1.60;99.90
1379;DHT22;683;48.738;9.226;2022-12-04T00:19:48;1.60;99.90
1379;DHT22;683;48.738;9.226;2022-12-04T00:22:15;1.60;99.90
1379;DHT22;683;48.738;9.226;2022-12-04T00:24:42;1.60;99.90
1379;DHT22;683;48.738;9.226;2022-12-04T00:27:10;1.60;99.90
1379;DHT22;683;48.738;9.226;2022-12-04T00:29:37;1.70;99.90
1379;DHT22;683;48.738;9.226;2022-12-04T00:32:05;1.70;99.90
1379;DHT22;683;48.738;9.226;2022-12-04T00:34:32;1.60;99.90
1379;DHT22;683;48.738;9.226;2022-12-04T00:37:00;1.60;99.90
1379;DHT22;683;48.738;9.226;2022-12-04T00:39:28;1.60;99.90
1379;DHT22;683;48.738;9.226;2022-12-04T00:41:55;1.60;99.90
1379;DHT22;683;48.738;9.226;2022-12-04T00:44:22;1.60;99.90
1379;DHT22;683;48.738;9.226;2022-12-04T00:46:49;1.60;99.90
1379;DHT22;683;48.738;9.226;2022-12-04T00:49:16;1.60;99.90
1379;DHT22;683;48.738;9.226;2022-12-04T00:51:44;1.60;99.90
1379;DHT22;683;48.738;9.226;2022-12-04T00:54:12;1.60;99.90
1379;DHT22;683;48.738;9.226;2022-12-04T00:56:39;1.60;99.90
1379;DHT22;683;48.738;9.226;2022-12-04T00:59:07;1.60;99.90
1379;DHT22;683;48.738;9.226;2022-12-04T01:01:34;1.60;99.90
1379;DHT22;683;48.738;9.226;2022-12-04T01:04:01;1.60;99.90
1379;DHT22;683;48.738;9.226;2022-12-04T01:06:29;1.60;99.90
1379;DHT22;683;48.738;9.226;2022-12-04T01:08:58;1.60;99.90
1379;DHT22;683;48.738;9.226;2022-12-04T01:11:27;1.60;99.90
1379;DHT22;683;48.738;9.226;2022-12-04T01:13:55;1.60;99.90
1379;DHT22;683;48.738;9.226;2022-12-04T01:16:23;1.60;99.90
1379;DHT22;683;48.738;9.226;2022-12-04T01:18:51;1.60;99.90
1379;DHT22;683;48.738;9.226;2022-12-04T01:21:19;1.60;99.90
1379;DHT22;683;48.738;9.226;2022-12-04T01:23:46;1.60;99.90
1379;DHT22;683;48.738;9.226;2022-12-04T01:26:14;1.60;99.90
1379;DHT22;683;48.738;9.226;2022-12-04T01:28:42;1.80;99.90
1379;DHT22;683;48.738;9.226;2022-12-04T01:31:11;1.80;99.90
1379;DHT22;683;48.738;9.226;2022-12-04T01:33:39;1.80;99.90
1379;DHT22;683;48.738;9.226;2022-12-04T01:36:09;1.80;99.90
1379;DHT22;683;48.738;9.226;2022-12-04T01:38:36;1.80;99.90
1379;DHT22;683;48.738;9.226;2022-12-04T01:41:05;1.80;99.90
1379;DHT22;683;48.738;9.226;2022-12-04T01:43:33;1.80;99.90
1379;DHT22;683;48.738;9.226;2022-12-04T01:46:03;1.70;99.90
1379;DHT22;683;48.738;9.226;2022-12-04T01:48:33;1.70;99.90
1379;DHT22;683;48.738;9.226;2022-12-04T01:51:04;1.70;99.90
1379;DHT22;683;48.738;9.226;2022-12-04T01:53:33;1.70;99.90
1379;DHT22;683;48.738;9.226;2022-12-04T01:56:02;1.70;99.90
1379;DHT22;683;48.738;9.226;2022-12-04T01:58:33;1.70;99.90
1379;DHT22;683;48.738;9.226;2022-12-04T02:01:05;1.70;99.90
1379;DHT22;683;48.738;9.226;2022-12-04T02:03:33;1.80;99.90
1379;DHT22;683;48.738;9.226;2022-12-04T02:06:01;1.80;99.90
1379;DHT22;683;48.738;9.226;2022-12-04T02:08:28;1.80;99.90
1379;DHT22;683;48.738;9.226;2022-12-04T02:11:06;1.80;99.90
1379;DHT22;683;48.738;9.226;2022-12-04T02:13:41;1.80;99.90
1379;DHT22;683;48.738;9.226;2022-12-04T02:16:14;1.80;99.90
1379;DHT22;683;48.738;9.226;2022-12-04T02:18:54;1.80;99.90
1379;DHT22;683;48.738;9.226;2022-12-04T02:21:28;1.70;99.90
1379;DHT22;683;48.738;9.226;2022-12-04T02:24:15;1.70;99.90
1379;DHT22;683;48.738;9.226;2022-12-04T02:26:48;1.70;99.90
1379;DHT22;683;48.738;9.226;2022-12-04T02:29:25;1.80;99.90
1379;DHT22;683;48.738;9.226;2022-12-04T02:32:01;1.80;99.90
1379;DHT22;683;48.738;9.226;2022-12-04T02:34:37;1.80;99.90
1379;DHT22;683;48.738;9.226;2022-12-04T02:37:09;1.80;99.90
1379;DHT22;683;48.738;9.226;2022-12-04T02:39:41;1.80;99.90
1379;DHT22;683;48.738;9.226;2022-12-04T02:42:13;1.70;99.90
1379;DHT22;683;48.738;9.226;2022-12-04T02:44:46;1.70;99.90
1379;DHT22;683;48.738;9.226;2022-12-04T02:47:18;1.70;99.90
1379;DHT22;683;48.738;9.226;2022-12-04T02:49:49;1.60;99.90
1379;DHT22;683;48.738;9.226;2022-12-04T02:52:23;1.70;99.90
1379;DHT22;683;48.738;9.226;2022-12-04T02:54:58;1.70;99.90
1379;DHT22;683;48.738;9.226;2022-12-04T02:57:30;1.70;99.90
1379;DHT22;683;48.738;9.226;2022-12-04T03:00:02;1.70;99.90
1379;DHT22;683;48.738;9.226;2022-12-04T03:02:33;1.70;99.90
1379;DHT22;683;48.738;9.226;2022-12-04T03:05:06;1.70;99.90
1379;DHT22;683;48.738;9.226;2022-12-04T03:07:39;1.70;99.90
1379;DHT22;683;48.738;9.226;2022-12-04T03:10:11;1.60;99.90
1379;DHT22;683;48.738;9.226;2022-12-04T03:12:42;1.60;99.90
1379;DHT22;683;48.738;9.226;2022-12-04T03:15:17;1.60;99.90
1379;DHT22;683;48.738;9.226;2022-12-04T03:17:50;1.60;99.90
1379;DHT22;683;48.738;9.226;2022-12-04T03:20:20;1.60;99.90
1379;DHT22;683;48.738;9.226;2022-12-04T03:22:53;1.60;99.90
1379;DHT22;683;48.738;9.226;2022-12-04T03:25:25;1.50;99.90
1379;DHT22;683;48.738;9.226;2022-12-04T03:27:58;1.60;99.90
1379;DHT22;683;48.738;9.226;2022-12-04T03:30:31;1.60;99.90
1379;DHT22;683;48.738;9.226;2022-12-04T03:33:06;1.60;99.90
1379;DHT22;683;48.738;9.226;2022-12-04T03:35:41;1.60;99.90
1379;DHT22;683;48.738;9.226;2022-12-04T03:38:15;1.60;99.90
1379;DHT22;683;48.738;9.226;2022-12-04T03:40:52;1.60;99.90
1379;DHT22;683;48.738;9.226;2022-12-04T03:43:25;1.60;99.90
1379;DHT22;683;48.738;9.226;2022-12-04T03:45:57;1.60;99.90
1379;DHT22;683;48.738;9.226;2022-12-04T03:48:28;1.70;99.90
1379;DHT22;683;48.738;9.226;2022-12-04T03:51:01;1.60;99.90
1379;DHT22;683;48.738;9.226;2022-12-04T03:53:35;1.60;99.90
1379;DHT22;683;48.738;9.226;2022-12-04T03:56:08;1.60;99.90
1379;DHT22;683;48.738;9.226;2022-12-04T03:58:40;1.70;99.90
1379;DHT22;683;48.738;9.226;2022-12-04T04:01:11;1.60;99.90
1379;DHT22;683;48.738;9.226;2022-12-04T04:03:43;1.60;99.90
1379;DHT22;683;48.738;9.226;2022-12-04T04:06:26;1.60;99.90
1379;DHT22;683;48.738;9.226;2022-12-04T04:09:01;1.60;99.90
1379;DHT22;683;48.738;9.226;2022-12-04T04:11:31;1.70;99.90
1379;DHT22;683;48.738;9.226;2022-12-04T04:14:06;1.70;99.90
1379;DHT22;683;48.738;9.226;2022-12-04T04:16:57;1.60;99.90
1379;DHT22;683;48.738;9.226;2022-12-04T04:19:55;1.70;99.90
1379;DHT22;683;48.738;9.226;2022-12-04T04:22:42;1.70;99.90
1379;DHT22;683;48.738;9.226;2022-12-04T04:25:27;1.60;99.90
1379;DHT22;683;48.738;9.226;2022-12-04T04:27:56;1.70;99.90
1379;DHT22;683;48.738;9.226;2022-12-04T04:30:25;1.70;99.90
1379;DHT22;683;48.738;9.226;2022-12-04T04:32:59;1.70;99.90
1379;DHT22;683;48.738;9.226;2022-12-04T04:35:35;1.70;99.90
1379;DHT22;683;48.738;9.226;2022-12-04T04:38:11;1.70;99.90
1379;DHT22;683;48.738;9.226;2022-12-04T04:40:46;1.60;99.90
1379;DHT22;683;48.738;9.226;2022-12-04T04:43:19;1.60;99.90
1379;DHT22;683;48.738;9.226;2022-12-04T04:45:53;1.60;99.90
1379;DHT22;683;48.738;9.226;2022-12-04T04:48:26;1.60;99.90
1379;DHT22;683;48.738;9.226;2022-12-04T04:50:54;1.60;99.90
1379;DHT22;683;48.738;9.226;2022-12-04T04:53:25;1.60;99.90
1379;DHT22;683;48.738;9.226;2022-12-04T04:55:55;1.60;99.90
1379;DHT22;683;48.738;9.226;2022-12-04T04:58:22;1.60;99.90
1379;DHT22;683;48.738;9.226;2022-12-04T05:00:55;1.60;99.90
1379;DHT22;683;48.738;9.226;2022-12-04T05:03:24;1.60;99.90
1379;DHT22;683;48.738;9.226;2022-12-04T05:05:51;1.60;99.90
1379;DHT22;683;48.738;9.226;2022-12-04T05:08:19;1.50;99.90
1379;DHT22;683;48.738;9.226;2022-12-04T05:10:47;1.60;99.90
1379;DHT22;683;48.738;9.226;2022-12-04T05:13:16;1.60;99.90
1379;DHT22;683;48.738;9.226;2022-12-04T05:15:43;1.60;99.90
1379;DHT22;683;48.738;9.226;2022-12-04T05:18:11;1.60;99.90
1379;DHT22;683;48.738;9.226;2022-12-04T05:20:39;1.50;99.90
1379;DHT22;683;48.738;9.226;2022-12-04T05:23:06;1.50;99.90
1379;DHT22;683;48.738;9.226;2022-12-04T05:25:33;1.50;99.90
1379;DHT22;683;48.738;9.226;2022-12-04T05:28:00;1.50;99.90
1379;DHT22;683;48.738;9.226;2022-12-04T05:30:27;1.50;99.90
1379;DHT22;683;48.738;9.226;2022-12-04T05:32:54;1.60;99.90
1379;DHT22;683;48.738;9.226;2022-12-04T05:35:22;1.60;99.90
1379;DHT22;683;48.738;9.226;2022-12-04T05:37:50;1.60;99.90
1379;DHT22;683;48.738;9.226;2022-12-04T05:40:18;1.60;99.90
1379;DHT22;683;48.738;9.226;2022-12-04T05:42:45;1.60;99.90
1379;DHT22;683;48.738;9.226;2022-12-04T05:45:12;1.60;99.90
1379;DHT22;683;48.738;9.226;2022-12-04T05:47:41;1.60;99.90
1379;DHT22;683;48.738;9.226;2022-12-04T05:50:09;1.60;99.90
1379;DHT22;683;48.738;9.226;2022-12-04T05:52:37;1.60;99.90
1379;DHT22;683;48.738;9.226;2022-12-04T05:55:06;1.60;99.90
1379;DHT22;683;48.738;9.226;2022-12-04T05:57:34;1.60;99.90
1379;DHT22;683;48.738;9.226;2022-12-04T06:00:01;1.60;99.90
1379;DHT22;683;48.738;9.226;2022-12-04T06:02:37;1.70;99.90
1379;DHT22;683;48.738;9.226;2022-12-04T06:05:04;1.60;99.90
1379;DHT22;683;48.738;9.226;2022-12-04T06:07:32;1.60;99.90
1379;DHT22;683;48.738;9.226;2022-12-04T06:09:59;1.60;99.90
1379;DHT22;683;48.738;9.226;2022-12-04T06:12:28;1.70;99.90
1379;DHT22;683;48.738;9.226;2022-12-04T06:14:56;1.60;99.90
1379;DHT22;683;48.738;9.226;2022-12-04T06:17:23;1.60;99.90
1379;DHT22;683;48.738;9.226;2022-12-04T06:19:50;1.60;99.90
1379;DHT22;683;48.738;9.226;2022-12-04T06:22:18;1.70;99.90
1379;DHT22;683;48.738;9.226;2022-12-04T06:24:45;1.70;99.90
1379;DHT22;683;48.738;9.226;2022-12-04T06:27:12;1.70;99.90
1379;DHT22;683;48.738;9.226;2022-12-04T06:29:41;1.70;99.90
1379;DHT22;683;48.738;9.226;2022-12-04T06:32:08;1.70;99.90
1379;DHT22;683;48.738;9.226;2022-12-04T06:34:35;1.70;99.90
1379;DHT22;683;48.738;9.226;2022-12-04T06:37:02;1.70;99.90
1379;DHT22;683;48.738;9.226;2022-12-04T06:39:30;1.70;99.90
1379;DHT22;683;48.738;9.226;2022-12-04T06:41:57;1.70;99.90
1379;DHT22;683;48.738;9.226;2022-12-04T06:44:24;1.70;99.90
1379;DHT22;683;48.738;9.226;2022-12-04T06:46:53;1.70;99.90
1379;DHT22;683;48.738;9.226;2022-12-04T06:49:20;1.70;99.90
1379;DHT22;683;48.738;9.226;2022-12-04T06:51:47;1.70;99.90
1379;DHT22;683;48.738;9.226;2022-12-04T06:54:14;1.60;99.90
1379;DHT22;683;48.738;9.226;2022-12-04T06:56:42;1.70;99.90
1379;DHT22;683;48.738;9.226;2022-12-04T06:59:09;1.70;99.90
1379;DHT22;683;48.738;9.226;2022-12-04T07:01:36;1.70;99.90
1379;DHT22;683;48.738;9.226;2022-12-04T07:04:05;1.70;99.90
1379;DHT22;683;48.738;9.226;2022-12-04T07:06:34;1.70;99.90
1379;DHT22;683;48.738;9.226;2022-12-04T07:09:04;1.70;99.90
1379;DHT22;683;48.738;9.226;2022-12-04T07:11:31;1.70;99.90
1379;DHT22;683;48.738;9.226;2022-12-04T07:13:59;1.70;99.90
1379;DHT22;683;48.738;9.226;2022-12-04T07:16:27;1.70;99.90
1379;DHT22;683;48.738;9.226;2022-12-04T07:18:55;1.70;99.90
1379;DHT22;683;48.738;9.226;2022-12-04T07:21:25;1.70;99.90
1379;DHT22;683;48.738;9.226;2022-12-04T07:23:54;1.70;99.90
1379;DHT22;683;48.738;9.226;2022-12-04T07:26:23;1.70;99.90
1379;DHT22;683;48.738;9.226;2022-12-04T07:28:50;1.70;99.90
1379;DHT22;683;48.738;9.226;2022-12-04T07:31:19;1.70;99.90
1379;DHT22;683;48.738;9.226;2022-12-04T07:33:47;1.70;99.90
1379;DHT22;683;48.738;9.226;2022-12-04T07:36:16;1.70;99.90
1379;DHT22;683;48.738;9.226;2022-12-04T07:38:45;1.70;99.90
1379;DHT22;683;48.738;9.226;2022-12-04T07:41:14;1.70;99.90
1379;DHT22;683;48.738;9.226;2022-12-04T07:43:42;1.80;99.90
1379;DHT22;683;48.738;9.226;2022-12-04T07:46:11;1.80;99.90
1379;DHT22;683;48.738;9.226;2022-12-04T07:48:39;1.80;99.90
1379;DHT22;683;48.738;9.226;2022-12-04T07:51:08;1.80;99.90
1379;DHT22;683;48.738;9.226;2022-12-04T07:53:35;1.80;99.90
1379;DHT22;683;48.738;9.226;2022-12-04T07:56:05;1.90;99.90
1379;DHT22;683;48.738;9.226;2022-12-04T07:58:33;1.90;99.90
1379;DHT22;683;48.738;9.226;2022-12-04T08:01:07;1.90;99.90
1379;DHT22;683;48.738;9.226;2022-12-04T08:03:36;1.90;99.90
1379;DHT22;683;48.738;9.226;2022-12-04T08:06:05;2.00;99.90
1379;DHT22;683;48.738;9.226;2022-12-04T08:08:33;2.00;99.90
1379;DHT22;683;48.738;9.226;2022-12-04T08:11:01;2.00;99.90
1379;DHT22;683;48.738;9.226;2022-12-04T08:13:32;2.00;99.90
1379;DHT22;683;48.738;9.226;2022-12-04T08:16:00;2.00;99.90
1379;DHT22;683;48.738;9.226;2022-12-04T08:18:28;2.00;99.90
1379;DHT22;683;48.738;9.226;2022-12-04T08:21:02;2.10;99.90
1379;DHT22;683;48.738;9.226;2022-12-04T08:23:29;2.10;99.90
1379;DHT22;683;48.738;9.226;2022-12-04T08:25:57;2.10;99.90
1379;DHT22;683;48.738;9.226;2022-12-04T08:28:25;2.10;99.90
1379;DHT22;683;48.738;9.226;2022-12-04T08:30:54;2.10;99.90
1379;DHT22;683;48.738;9.226;2022-12-04T08:33:21;2.10;99.90
1379;DHT22;683;48.738;9.226;2022-12-04T08:35:48;2.10;99.90
1379;DHT22;683;48.738;9.226;2022-12-04T08:38:15;2.10;99.90
1379;DHT22;683;48.738;9.226;2022-12-04T08:40:42;2.20;99.90
1379;DHT22;683;48.738;9.226;2022-12-04T08:43:12;2.20;99.90
1379;DHT22;683;48.738;9.226;2022-12-04T08:45:40;2.20;99.90
1379;DHT22;683;48.738;9.226;2022-12-04T08:48:08;2.20;99.90
1379;DHT22;683;48.738;9.226;2022-12-04T08:50:35;2.20;99.90
1379;DHT22;683;48.738;9.226;2022-12-04T08:53:03;2.20;99.90
1379;DHT22;683;48.738;9.226;2022-12-04T08:55:30;2.20;99.90
1379;DHT22;683;48.738;9.226;2022-12-04T08:57:57;2.20;99.90
1379;DHT22;683;48.738;9.226;2022-12-04T09:00:24;2.20;99.90
1379;DHT22;683;48.738;9.226;2022-12-04T09:02:52;2.20;99.90
1379;DHT22;683;48.738;9.226;2022-12-04T09:05:20;2.20;99.90
1379;DHT22;683;48.738;9.226;2022-12-04T09:07:47;2.20;99.90
1379;DHT22;683;48.738;9.226;2022-12-04T09:10:15;2.30;99.90
1379;DHT22;683;48.738;9.226;2022-12-04T09:12:42;2.30;99.90
1379;DHT22;683;48.738;9.226;2022-12-04T09:15:10;2.40;99.90
1379;DHT22;683;48.738;9.226;2022-12-04T09:17:37;2.40;99.90
1379;DHT22;683;48.738;9.226;2022-12-04T09:20:06;2.50;99.90
1379;DHT22;683;48.738;9.226;2022-12-04T09:22:36;2.50;99.90
1379;DHT22;683;48.738;9.226;2022-12-04T09:25:04;2.50;99.90
1379;DHT22;683;48.738;9.226;2022-12-04T09:27:35;2.50;99.90
1379;DHT22;683;48.738;9.226;2022-12-04T09:30:03;2.50;99.90
1379;DHT22;683;48.738;9.226;2022-12-04T09:32:30;2.50;99.90
1379;DHT22;683;48.738;9.226;2022-12-04T09:34:57;2.50;99.90
1379;DHT22;683;48.738;9.226;2022-12-04T09:37:25;2.50;99.90
1379;DHT22;683;48.738;9.226;2022-12-04T09:39:53;2.60;99.90
1379;DHT22;683;48.738;9.226;2022-12-04T09:42:31;2.50;99.90
1379;DHT22;683;48.738;9.226;2022-12-04T09:45:03;2.50;99.90
1379;DHT22;683;48.738;9.226;2022-12-04T09:47:37;2.60;99.90
1379;DHT22;683;48.738;9.226;2022-12-04T09:50:11;2.60;99.90
1379;DHT22;683;48.738;9.226;2022-12-04T09:52:46;2.60;99.90
1379;DHT22;683;48.738;9.226;2022-12-04T09:55:20;2.60;99.90
1379;DHT22;683;48.738;9.226;2022-12-04T09:57:50;2.60;99.90
1379;DHT22;683;48.738;9.226;2022-12-04T10:00:19;2.60;99.90
1379;DHT22;683;48.738;9.226;2022-12-04T10:02:50;2.60;99.90
1379;DHT22;683;48.738;9.226;2022-12-04T10:05:21;2.60;99.90
1379;DHT22;683;48.738;9.226;2022-12-04T10:08:01;2.60;99.90
1379;DHT22;683;48.738;9.226;2022-12-04T10:10:36;2.60;99.90
1379;DHT22;683;48.738;9.226;2022-12-04T10:13:17;2.50;99.90
1379;DHT22;683;48.738;9.226;2022-12-04T10:15:51;2.50;99.90
1379;DHT22;683;48.738;9.226;2022-12-04T10:18:32;2.50;99.90
1379;DHT22;683;48.738;9.226;2022-12-04T10:23:59;2.50;99.90
1379;DHT22;683;48.738;9.226;2022-12-04T10:26:34;2.50;99.90
1379;DHT22;683;48.738;9.226;2022-12-04T10:29:05;2.50;99.90
1379;DHT22;683;48.738;9.226;2022-12-04T10:31:35;2.50;99.90
1379;DHT22;683;48.738;9.226;2022-12-04T10:34:06;2.50;99.90
1379;DHT22;683;48.738;9.226;2022-12-04T10:36:34;2.50;99.90
1379;DHT22;683;48.738;9.226;2022-12-04T10:39:05;2.50;99.90
1379;DHT22;683;48.738;9.226;2022-12-04T10:41:41;2.60;99.90
1379;DHT22;683;48.738;9.226;2022-12-04T10:44:12;2.60;99.90
1379;DHT22;683;48.738;9.226;2022-12-04T10:46:40;2.60;99.90
1379;DHT22;683;48.738;9.226;2022-12-04T10:49:15;2.60;99.90
1379;DHT22;683;48.738;9.226;2022-12-04T10:51:44;2.70;99.90
1379;DHT22;683;48.738;9.226;2022-12-04T10:54:19;2.70;99.90
1379;DHT22;683;48.738;9.226;2022-12-04T10:56:53;2.70;99.90
1379;DHT22;683;48.738;9.226;2022-12-04T10:59:22;2.50;99.90
1379;DHT22;683;48.738;9.226;2022-12-04T11:01:50;2.50;99.90
1379;DHT22;683;48.738;9.226;2022-12-04T11:04:21;2.50;99.90
1379;DHT22;683;48.738;9.226;2022-12-04T11:06:50;2.50;99.90
1379;DHT22;683;48.738;9.226;2022-12-04T11:09:20;2.50;99.90
1379;DHT22;683;48.738;9.226;2022-12-04T11:11:48;2.50;99.90
1379;DHT22;683;48.738;9.226;2022-12-04T11:14:20;2.50;99.90
1379;DHT22;683;48.738;9.226;2022-12-04T11:16:49;2.50;99.90
1379;DHT22;683;48.738;9.226;2022-12-04T11:19:22;2.50;99.90
1379;DHT22;683;48.738;9.226;2022-12-04T11:21:51;2.50;99.90
1379;DHT22;683;48.738;9.226;2022-12-04T11:24:21;2.50;99.90
1379;DHT22;683;48.738;9.226;2022-12-04T11:26:49;2.50;99.90
1379;DHT22;683;48.738;9.226;2022-12-04T11:29:21;2.50;99.90
1379;DHT22;683;48.738;9.226;2022-12-04T11:31:53;2.50;99.90
1379;DHT22;683;48.738;9.226;2022-12-04T11:34:27;2.50;99.90
1379;DHT22;683;48.738;9.226;2022-12-04T11:36:56;2.50;99.90
1379;DHT22;683;48.738;9.226;2022-12-04T11:39:28;2.50;99.90
1379;DHT22;683;48.738;9.226;2022-12-04T11:42:04;2.50;99.90
1379;DHT22;683;48.738;9.226;2022-12-04T11:44:34;2.50;99.90
1379;DHT22;683;48.738;9.226;2022-12-04T11:47:03;2.60;99.90
1379;DHT22;683;48.738;9.226;2022-12-04T11:49:31;2.60;99.90
1379;DHT22;683;48.738;9.226;2022-12-04T11:52:18;2.60;99.90
1379;DHT22;683;48.738;9.226;2022-12-04T11:54:58;2.70;99.90
1379;DHT22;683;48.738;9.226;2022-12-04T11:57:32;2.70;99.90
1379;DHT22;683;48.738;9.226;2022-12-04T12:00:15;2.70;99.90
1379;DHT22;683;48.738;9.226;2022-12-04T12:03:07;2.70;99.90
1379;DHT22;683;48.738;9.226;2022-12-04T12:06:05;2.70;99.90
1379;DHT22;683;48.738;9.226;2022-12-04T12:08:46;2.80;99.90
1379;DHT22;683;48.738;9.226;2022-12-04T12:11:22;2.80;99.90
1379;DHT22;683;48.738;9.226;2022-12-04T12:13:57;2.80;99.90
1379;DHT22;683;48.738;9.226;2022-12-04T12:16:34;2.70;99.90
1379;DHT22;683;48.738;9.226;2022-12-04T12:22:02;2.70;99.90
1379;DHT22;683;48.738;9.226;2022-12-04T12:24:40;2.70;99.90
1379;DHT22;683;48.738;9.226;2022-12-04T12:27:26;2.70;99.90
1379;DHT22;683;48.738;9.226;2022-12-04T12:30:01;2.80;99.90
1379;DHT22;683;48.738;9.226;2022-12-04T12:32:43;2.80;99.90
1379;DHT22;683;48.738;9.226;2022-12-04T12:35:21;2.80;99.90
1379;DHT22;683;48.738;9.226;2022-12-04T12:37:52;2.80;99.90
1379;DHT22;683;48.738;9.226;2022-12-04T12:40:26;2.80;99.90
1379;DHT22;683;48.738;9.226;2022-12-04T12:42:56;2.90;99.90
1379;DHT22;683;48.738;9.226;2022-12-04T12:45:32;2.90;99.90
1379;DHT22;683;48.738;9.226;2022-12-04T12:48:10;3.00;99.90
1379;DHT22;683;48.738;9.226;2022-12-04T12:50:43;3.00;99.90
1379;DHT22;683;48.738;9.226;2022-12-04T12:53:15;3.00;99.90
1379;DHT22;683;48.738;9.226;2022-12-04T12:55:47;2.90;99.90
1379;DHT22;683;48.738;9.226;2022-12-04T12:58:25;3.00;99.90
1379;DHT22;683;48.738;9.226;2022-12-04T13:00:59;3.00;99.90
1379;DHT22;683;48.738;9.226;2022-12-04T13:03:38;3.00;99.90
1379;DHT22;683;48.738;9.226;2022-12-04T13:06:13;3.00;99.90
1379;DHT22;683;48.738;9.226;2022-12-04T13:08:47;3.00;99.90
1379;DHT22;683;48.738;9.226;2022-12-04T13:11:20;2.90;99.90
1379;DHT22;683;48.738;9.226;2022-12-04T13:13:50;2.90;99.90
1379;DHT22;683;48.738;9.226;2022-12-04T13:16:20;2.80;99.90
1379;DHT22;683;48.738;9.226;2022-12-04T13:18:57;2.80;99.90
1379;DHT22;683;48.738;9.226;2022-12-04T13:21:33;2.80;99.90
1379;DHT22;683;48.738;9.226;2022-12-04T13:24:31;2.80;99.90
1379;DHT22;683;48.738;9.226;2022-12-04T13:27:07;2.90;99.90
1379;DHT22;683;48.738;9.226;2022-12-04T13:29:57;2.90;99.90
1379;DHT22;683;48.738;9.226;2022-12-04T13:32:56;2.90;99.90
1379;DHT22;683;48.738;9.226;2022-12-04T13:35:41;2.90;99.90
1379;DHT22;683;48.738;9.226;2022-12-04T13:38:17;2.90;99.90
1379;DHT22;683;48.738;9.226;2022-12-04T13:40:51;2.90;99.90
1379;DHT22;683;48.738;9.226;2022-12-04T13:43:33;2.70;99.90
1379;DHT22;683;48.738;9.226;2022-12-04T13:46:04;2.60;99.90
1379;DHT22;683;48.738;9.226;2022-12-04T13:48:35;2.60;99.90
1379;DHT22;683;48.738;9.226;2022-12-04T13:51:19;2.60;99.90
1379;DHT22;683;48.738;9.226;2022-12-04T13:53:47;2.60;99.90
1379;DHT22;683;48.738;9.226;2022-12-04T13:56:24;2.60;99.90
1379;DHT22;683;48.738;9.226;2022-12-04T13:58:59;2.60;99.90
1379;DHT22;683;48.738;9.226;2022-12-04T14:01:33;2.60;99.90
1379;DHT22;683;48.738;9.226;2022-12-04T14:04:03;2.70;99.90
1379;DHT22;683;48.738;9.226;2022-12-04T14:06:35;2.70;99.90
1379;DHT22;683;48.738;9.226;2022-12-04T14:09:07;2.70;99.90
1379;DHT22;683;48.738;9.226;2022-12-04T14:11:42;2.70;99.90
1379;DHT22;683;48.738;9.226;2022-12-04T14:14:22;2.70;99.90
1379;DHT22;683;48.738;9.226;2022-12-04T14:16:58;2.70;99.90
1379;DHT22;683;48.738;9.226;2022-12-04T14:19:30;2.60;99.90
1379;DHT22;683;48.738;9.226;2022-12-04T14:21:59;2.70;99.90
1379;DHT22;683;48.738;9.226;2022-12-04T14:24:33;2.60;99.90
1379;DHT22;683;48.738;9.226;2022-12-04T14:27:27;2.70;99.90
1379;DHT22;683;48.738;9.226;2022-12-04T14:29:52;2.70;99.90
1379;DHT22;683;48.738;9.226;2022-12-04T14:32:23;2.80;99.90
1379;DHT22;683;48.738;9.226;2022-12-04T14:34:51;2.80;99.90
1379;DHT22;683;48.738;9.226;2022-12-04T14:37:28;2.80;99.90
1379;DHT22;683;48.738;9.226;2022-12-04T14:40:02;2.90;99.90
1379;DHT22;683;48.738;9.226;2022-12-04T14:42:36;2.90;99.90
1379;DHT22;683;48.738;9.226;2022-12-04T14:45:14;2.80;99.90
1379;DHT22;683;48.738;9.226;2022-12-04T14:47:51;2.80;99.90
1379;DHT22;683;48.738;9.226;2022-12-04T14:50:33;2.80;99.90
1379;DHT22;683;48.738;9.226;2022-12-04T14:53:15;2.80;99.90
1379;DHT22;683;48.738;9.226;2022-12-04T14:55:51;2.80;99.90
1379;DHT22;683;48.738;9.226;2022-12-04T14:58:22;2.80;99.90
1379;DHT22;683;48.738;9.226;2022-12-04T15:00:58;2.80;99.90
1379;DHT22;683;48.738;9.226;2022-12-04T15:03:26;2.80;99.90
1379;DHT22;683;48.738;9.226;2022-12-04T15:06:01;2.90;99.90
1379;DHT22;683;48.738;9.226;2022-12-04T15:08:30;2.80;99.90
1379;DHT22;683;48.738;9.226;2022-12-04T15:10:57;2.90;99.90
1379;DHT22;683;48.738;9.226;2022-12-04T15:13:41;2.80;99.90
1379;DHT22;683;48.738;9.226;2022-12-04T15:16:13;2.80;99.90
1379;DHT22;683;48.738;9.226;2022-12-04T15:18:52;2.70;99.90
1379;DHT22;683;48.738;9.226;2022-12-04T15:21:20;2.80;99.90
1379;DHT22;683;48.738;9.226;2022-12-04T15:23:49;2.80;99.90
1379;DHT22;683;48.738;9.226;2022-12-04T15:26:18;2.80;99.90
1379;DHT22;683;48.738;9.226;2022-12-04T15:28:49;2.70;99.90
1379;DHT22;683;48.738;9.226;2022-12-04T15:31:20;2.80;99.90
1379;DHT22;683;48.738;9.226;2022-12-04T15:33:51;2.80;99.90
1379;DHT22;683;48.738;9.226;2022-12-04T15:36:28;2.80;99.90
1379;DHT22;683;48.738;9.226;2022-12-04T15:38:59;2.80;99.90
1379;DHT22;683;48.738;9.226;2022-12-04T15:41:30;2.80;99.90
1379;DHT22;683;48.738;9.226;2022-12-04T15:43:58;2.80;99.90
1379;DHT22;683;48.738;9.226;2022-12-04T15:46:34;2.80;99.90
1379;DHT22;683;48.738;9.226;2022-12-04T15:49:13;2.80;99.90
1379;DHT22;683;48.738;9.226;2022-12-04T15:51:43;2.80;99.90
1379;DHT22;683;48.738;9.226;2022-12-04T15:54:17;2.80;99.90
1379;DHT22;683;48.738;9.226;2022-12-04T15:56:56;2.70;99.90
1379;DHT22;683;48.738;9.226;2022-12-04T15:59:24;2.70;99.90
1379;DHT22;683;48.738;9.226;2022-12-04T16:01:53;2.70;99.90
1379;DHT22;683;48.738;9.226;2022-12-04T16:04:21;2.70;99.90
1379;DHT22;683;48.738;9.226;2022-12-04T16:06:50;2.80;99.90
1379;DHT22;683;48.738;9.226;2022-12-04T16:09:22;2.70;99.90
1379;DHT22;683;48.738;9.226;2022-12-04T16:11:57;2.80;99.90
1379;DHT22;683;48.738;9.226;2022-12-04T16:14:25;2.70;99.90
1379;DHT22;683;48.738;9.226;2022-12-04T16:16:53;2.80;99.90
1379;DHT22;683;48.738;9.226;2022-12-04T16:19:26;2.80;99.90
1379;DHT22;683;48.738;9.226;2022-12-04T16:21:54;2.70;99.90
1379;DHT22;683;48.738;9.226;2022-12-04T16:24:23;2.70;99.90
1379;DHT22;683;48.738;9.226;2022-12-04T16:26:52;2.70;99.90
1379;DHT22;683;48.738;9.226;2022-12-04T16:29:21;2.70;99.90
1379;DHT22;683;48.738;9.226;2022-12-04T16:31:49;2.70;99.90
1379;DHT22;683;48.738;9.226;2022-12-04T16:34:16;2.70;99.90
1379;DHT22;683;48.738;9.226;2022-12-04T16:36:43;2.70;99.90
1379;DHT22;683;48.738;9.226;2022-12-04T16:39:11;2.70;99.90
1379;DHT22;683;48.738;9.226;2022-12-04T16:41:39;2.60;99.90
1379;DHT22;683;48.738;9.226;2022-12-04T16:44:12;2.60;99.90
1379;DHT22;683;48.738;9.226;2022-12-04T16:46:40;2.60;99.90
1379;DHT22;683;48.738;9.226;2022-12-04T16:49:10;2.60;99.90
1379;DHT22;683;48.738;9.226;2022-12-04T16:51:40;2.60;99.90
1379;DHT22;683;48.738;9.226;2022-12-04T16:54:11;2.50;99.90
1379;DHT22;683;48.738;9.226;2022-12-04T16:56:40;2.60;99.90
1379;DHT22;683;48.738;9.226;2022-12-04T16:59:07;2.60;99.90
1379;DHT22;683;48.738;9.226;2022-12-04T17:01:37;2.50;99.90
1379;DHT22;683;48.738;9.226;2022-12-04T17:04:08;2.50;99.90
1379;DHT22;683;48.738;9.226;2022-12-04T17:06:36;2.50;99.90